sensor_id;sensor_type;location;lat;lon;timestamp;P1;durP1;ratioP1;P2;durP2;ratioP2
72132;SDS011;60008;50.826;6.896;2023-04-03T00:00:29;4.85;;;1.50;;
72132;SDS011;60008;50.826;6.896;2023-04-03T00:03:14;7.40;;;1.97;;
72132;SDS011;60008;50.826;6.896;2023-04-03T00:06:00;6.07;;;1.60;;
72132;SDS011;60008;50.826;6.896;2023-04-03T00:08:45;7.38;;;1.98;;
72132;SDS011;60008;50.826;6.896;2023-04-03T00:11:30;4.55;;;1.40;;
72132;SDS011;60008;50.826;6.896;2023-04-03T00:14:15;3.97;;;1.33;;
72132;SDS011;60008;50.826;6.896;2023-04-03T00:17:00;3.77;;;1.40;;
72132;SDS011;60008;50.826;6.896;2023-04-03T00:19:45;4.50;;;1.40;;
72132;SDS011;60008;50.826;6.896;2023-04-03T00:22:30;2.40;;;1.20;;
72132;SDS011;60008;50.826;6.896;2023-04-03T00:25:15;4.53;;;1.33;;
72132;SDS011;60008;50.826;6.896;2023-04-03T00:28:00;2.58;;;1.15;;
72132;SDS011;60008;50.826;6.896;2023-04-03T00:30:46;3.67;;;1.40;;
72132;SDS011;60008;50.826;6.896;2023-04-03T00:33:32;4.15;;;1.35;;
72132;SDS011;60008;50.826;6.896;2023-04-03T00:36:17;4.13;;;1.33;;
72132;SDS011;60008;50.826;6.896;2023-04-03T00:39:02;2.90;;;1.27;;
72132;SDS011;60008;50.826;6.896;2023-04-03T00:41:47;5.22;;;1.33;;
72132;SDS011;60008;50.826;6.896;2023-04-03T00:47:17;3.08;;;1.13;;
72132;SDS011;60008;50.826;6.896;2023-04-03T00:50:02;4.18;;;1.20;;
72132;SDS011;60008;50.826;6.896;2023-04-03T00:52:48;6.15;;;1.73;;
72132;SDS011;60008;50.826;6.896;2023-04-03T00:55:33;6.78;;;1.73;;
72132;SDS011;60008;50.826;6.896;2023-04-03T00:58:21;5.40;;;1.70;;
72132;SDS011;60008;50.826;6.896;2023-04-03T01:01:22;5.57;;;1.30;;
72132;SDS011;60008;50.826;6.896;2023-04-03T01:04:28;5.30;;;1.60;;
72132;SDS011;60008;50.826;6.896;2023-04-03T01:07:17;3.20;;;1.20;;
72132;SDS011;60008;50.826;6.896;2023-04-03T01:10:07;6.22;;;1.70;;
72132;SDS011;60008;50.826;6.896;2023-04-03T01:12:54;7.00;;;1.90;;
72132;SDS011;60008;50.826;6.896;2023-04-03T01:15:39;3.67;;;1.75;;
72132;SDS011;60008;50.826;6.896;2023-04-03T01:18:25;4.03;;;1.65;;
72132;SDS011;60008;50.826;6.896;2023-04-03T01:27:23;13.07;;;2.17;;
72132;SDS011;60008;50.826;6.896;2023-04-03T01:30:08;5.68;;;1.60;;
72132;SDS011;60008;50.826;6.896;2023-04-03T01:32:53;4.35;;;1.90;;
72132;SDS011;60008;50.826;6.896;2023-04-03T01:35:39;4.07;;;1.77;;
72132;SDS011;60008;50.826;6.896;2023-04-03T01:38:24;3.97;;;1.58;;
72132;SDS011;60008;50.826;6.896;2023-04-03T01:41:10;6.23;;;2.10;;
72132;SDS011;60008;50.826;6.896;2023-04-03T01:43:55;3.65;;;1.50;;
72132;SDS011;60008;50.826;6.896;2023-04-03T01:46:39;3.38;;;1.48;;
72132;SDS011;60008;50.826;6.896;2023-04-03T01:49:25;4.05;;;1.70;;
72132;SDS011;60008;50.826;6.896;2023-04-03T01:52:11;4.10;;;1.70;;
72132;SDS011;60008;50.826;6.896;2023-04-03T01:54:56;7.03;;;1.80;;
72132;SDS011;60008;50.826;6.896;2023-04-03T01:57:41;7.00;;;1.98;;
72132;SDS011;60008;50.826;6.896;2023-04-03T02:00:25;3.65;;;1.67;;
72132;SDS011;60008;50.826;6.896;2023-04-03T02:03:11;4.45;;;1.90;;
72132;SDS011;60008;50.826;6.896;2023-04-03T02:05:56;3.47;;;1.63;;
72132;SDS011;60008;50.826;6.896;2023-04-03T02:08:41;4.17;;;2.00;;
72132;SDS011;60008;50.826;6.896;2023-04-03T02:11:26;3.97;;;1.75;;
72132;SDS011;60008;50.826;6.896;2023-04-03T02:14:11;3.95;;;1.90;;
72132;SDS011;60008;50.826;6.896;2023-04-03T02:16:56;4.57;;;1.70;;
72132;SDS011;60008;50.826;6.896;2023-04-03T02:19:42;3.20;;;1.73;;
72132;SDS011;60008;50.826;6.896;2023-04-03T02:22:27;3.03;;;1.60;;
72132;SDS011;60008;50.826;6.896;2023-04-03T02:25:12;8.18;;;1.85;;
72132;SDS011;60008;50.826;6.896;2023-04-03T02:27:57;3.60;;;1.60;;
72132;SDS011;60008;50.826;6.896;2023-04-03T02:30:42;4.47;;;1.45;;
72132;SDS011;60008;50.826;6.896;2023-04-03T02:33:27;3.92;;;1.73;;
72132;SDS011;60008;50.826;6.896;2023-04-03T02:36:12;3.67;;;1.77;;
72132;SDS011;60008;50.826;6.896;2023-04-03T02:38:57;3.47;;;1.63;;
72132;SDS011;60008;50.826;6.896;2023-04-03T02:41:42;3.00;;;1.50;;
72132;SDS011;60008;50.826;6.896;2023-04-03T02:44:27;3.03;;;1.60;;
72132;SDS011;60008;50.826;6.896;2023-04-03T02:47:12;3.70;;;1.67;;
72132;SDS011;60008;50.826;6.896;2023-04-03T02:49:57;4.33;;;1.53;;
72132;SDS011;60008;50.826;6.896;2023-04-03T02:52:42;3.22;;;1.30;;
72132;SDS011;60008;50.826;6.896;2023-04-03T02:55:27;4.78;;;1.63;;
72132;SDS011;60008;50.826;6.896;2023-04-03T02:58:12;4.57;;;1.50;;
72132;SDS011;60008;50.826;6.896;2023-04-03T03:00:57;3.30;;;1.30;;
72132;SDS011;60008;50.826;6.896;2023-04-03T03:03:42;3.10;;;1.60;;
72132;SDS011;60008;50.826;6.896;2023-04-03T03:06:27;5.15;;;1.35;;
72132;SDS011;60008;50.826;6.896;2023-04-03T03:09:11;3.38;;;1.58;;
72132;SDS011;60008;50.826;6.896;2023-04-03T03:11:57;3.30;;;1.65;;
72132;SDS011;60008;50.826;6.896;2023-04-03T03:14:43;3.47;;;1.52;;
72132;SDS011;60008;50.826;6.896;2023-04-03T03:17:28;5.23;;;1.73;;
72132;SDS011;60008;50.826;6.896;2023-04-03T03:20:13;5.80;;;1.70;;
72132;SDS011;60008;50.826;6.896;2023-04-03T03:23:00;3.00;;;1.48;;
72132;SDS011;60008;50.826;6.896;2023-04-03T03:25:45;3.90;;;1.60;;
72132;SDS011;60008;50.826;6.896;2023-04-03T03:28:30;8.50;;;1.90;;
72132;SDS011;60008;50.826;6.896;2023-04-03T03:31:15;3.43;;;1.60;;
72132;SDS011;60008;50.826;6.896;2023-04-03T03:34:00;4.88;;;2.00;;
72132;SDS011;60008;50.826;6.896;2023-04-03T03:36:46;5.10;;;1.90;;
72132;SDS011;60008;50.826;6.896;2023-04-03T03:39:30;6.80;;;1.83;;
72132;SDS011;60008;50.826;6.896;2023-04-03T03:42:15;4.03;;;1.90;;
72132;SDS011;60008;50.826;6.896;2023-04-03T03:45:01;3.80;;;2.10;;
72132;SDS011;60008;50.826;6.896;2023-04-03T03:47:46;3.92;;;2.08;;
72132;SDS011;60008;50.826;6.896;2023-04-03T03:50:31;5.35;;;2.00;;
72132;SDS011;60008;50.826;6.896;2023-04-03T03:53:16;4.03;;;2.00;;
72132;SDS011;60008;50.826;6.896;2023-04-03T03:56:01;4.28;;;1.85;;
72132;SDS011;60008;50.826;6.896;2023-04-03T03:58:46;6.03;;;2.40;;
72132;SDS011;60008;50.826;6.896;2023-04-03T04:01:31;4.45;;;2.17;;
72132;SDS011;60008;50.826;6.896;2023-04-03T04:04:16;5.53;;;2.67;;
72132;SDS011;60008;50.826;6.896;2023-04-03T04:07:02;4.78;;;2.58;;
72132;SDS011;60008;50.826;6.896;2023-04-03T04:09:47;5.95;;;2.58;;
72132;SDS011;60008;50.826;6.896;2023-04-03T04:12:32;4.47;;;2.30;;
72132;SDS011;60008;50.826;6.896;2023-04-03T04:15:17;4.43;;;2.33;;
72132;SDS011;60008;50.826;6.896;2023-04-03T04:18:04;5.68;;;2.55;;
72132;SDS011;60008;50.826;6.896;2023-04-03T04:20:49;5.55;;;2.38;;
72132;SDS011;60008;50.826;6.896;2023-04-03T04:23:34;5.43;;;2.47;;
72132;SDS011;60008;50.826;6.896;2023-04-03T04:26:19;4.50;;;2.40;;
72132;SDS011;60008;50.826;6.896;2023-04-03T04:29:05;4.88;;;2.60;;
72132;SDS011;60008;50.826;6.896;2023-04-03T04:31:51;5.60;;;2.38;;
72132;SDS011;60008;50.826;6.896;2023-04-03T04:34:35;5.88;;;2.47;;
72132;SDS011;60008;50.826;6.896;2023-04-03T04:37:20;7.45;;;2.63;;
72132;SDS011;60008;50.826;6.896;2023-04-03T04:40:05;6.40;;;2.57;;
72132;SDS011;60008;50.826;6.896;2023-04-03T04:42:51;5.07;;;2.58;;
72132;SDS011;60008;50.826;6.896;2023-04-03T04:45:36;4.78;;;2.65;;
72132;SDS011;60008;50.826;6.896;2023-04-03T04:48:22;3.95;;;2.28;;
72132;SDS011;60008;50.826;6.896;2023-04-03T04:51:06;3.90;;;2.20;;
72132;SDS011;60008;50.826;6.896;2023-04-03T04:53:52;5.77;;;2.40;;
72132;SDS011;60008;50.826;6.896;2023-04-03T04:56:39;4.68;;;2.42;;
72132;SDS011;60008;50.826;6.896;2023-04-03T04:59:25;6.35;;;2.28;;
72132;SDS011;60008;50.826;6.896;2023-04-03T05:02:09;7.55;;;2.42;;
72132;SDS011;60008;50.826;6.896;2023-04-03T05:04:55;6.03;;;2.70;;
72132;SDS011;60008;50.826;6.896;2023-04-03T05:07:39;4.83;;;2.47;;
72132;SDS011;60008;50.826;6.896;2023-04-03T05:10:25;6.50;;;2.50;;
72132;SDS011;60008;50.826;6.896;2023-04-03T05:13:09;5.55;;;2.67;;
72132;SDS011;60008;50.826;6.896;2023-04-03T05:15:55;6.72;;;2.78;;
72132;SDS011;60008;50.826;6.896;2023-04-03T05:18:39;5.75;;;2.65;;
72132;SDS011;60008;50.826;6.896;2023-04-03T05:21:24;8.13;;;2.90;;
72132;SDS011;60008;50.826;6.896;2023-04-03T05:24:11;9.82;;;2.90;;
72132;SDS011;60008;50.826;6.896;2023-04-03T05:26:56;5.30;;;2.67;;
72132;SDS011;60008;50.826;6.896;2023-04-03T05:29:40;5.18;;;2.53;;
72132;SDS011;60008;50.826;6.896;2023-04-03T05:32:29;5.45;;;2.80;;
72132;SDS011;60008;50.826;6.896;2023-04-03T05:35:14;6.23;;;2.50;;
72132;SDS011;60008;50.826;6.896;2023-04-03T05:37:59;4.50;;;2.30;;
72132;SDS011;60008;50.826;6.896;2023-04-03T05:40:45;6.88;;;2.97;;
72132;SDS011;60008;50.826;6.896;2023-04-03T05:43:30;6.20;;;2.92;;
72132;SDS011;60008;50.826;6.896;2023-04-03T05:46:16;5.85;;;2.58;;
72132;SDS011;60008;50.826;6.896;2023-04-03T05:49:03;4.80;;;2.67;;
72132;SDS011;60008;50.826;6.896;2023-04-03T05:51:48;7.78;;;2.72;;
72132;SDS011;60008;50.826;6.896;2023-04-03T05:54:32;5.30;;;2.40;;
72132;SDS011;60008;50.826;6.896;2023-04-03T05:57:18;5.57;;;2.17;;
72132;SDS011;60008;50.826;6.896;2023-04-03T06:00:03;5.20;;;2.15;;
72132;SDS011;60008;50.826;6.896;2023-04-03T06:02:52;4.93;;;1.93;;
72132;SDS011;60008;50.826;6.896;2023-04-03T06:05:38;8.65;;;2.28;;
72132;SDS011;60008;50.826;6.896;2023-04-03T06:08:23;6.65;;;2.08;;
72132;SDS011;60008;50.826;6.896;2023-04-03T06:11:08;5.53;;;2.10;;
72132;SDS011;60008;50.826;6.896;2023-04-03T06:13:53;6.10;;;1.80;;
72132;SDS011;60008;50.826;6.896;2023-04-03T06:16:38;5.67;;;1.50;;
72132;SDS011;60008;50.826;6.896;2023-04-03T06:19:24;5.18;;;1.58;;
72132;SDS011;60008;50.826;6.896;2023-04-03T06:22:09;3.38;;;1.38;;
72132;SDS011;60008;50.826;6.896;2023-04-03T06:24:56;7.43;;;1.20;;
72132;SDS011;60008;50.826;6.896;2023-04-03T06:27:41;2.85;;;1.27;;
72132;SDS011;60008;50.826;6.896;2023-04-03T06:30:27;17.27;;;1.10;;
72132;SDS011;60008;50.826;6.896;2023-04-03T06:33:12;3.30;;;1.23;;
72132;SDS011;60008;50.826;6.896;2023-04-03T06:35:57;3.85;;;1.30;;
72132;SDS011;60008;50.826;6.896;2023-04-03T06:38:43;5.38;;;1.73;;
72132;SDS011;60008;50.826;6.896;2023-04-03T06:41:28;3.58;;;1.02;;
72132;SDS011;60008;50.826;6.896;2023-04-03T06:44:13;3.00;;;1.03;;
72132;SDS011;60008;50.826;6.896;2023-04-03T06:47:00;3.30;;;1.13;;
72132;SDS011;60008;50.826;6.896;2023-04-03T06:49:45;5.65;;;1.30;;
72132;SDS011;60008;50.826;6.896;2023-04-03T06:52:30;3.35;;;0.70;;
72132;SDS011;60008;50.826;6.896;2023-04-03T06:55:15;2.13;;;0.80;;
72132;SDS011;60008;50.826;6.896;2023-04-03T06:58:00;6.77;;;0.90;;
72132;SDS011;60008;50.826;6.896;2023-04-03T07:00:45;2.13;;;0.70;;
72132;SDS011;60008;50.826;6.896;2023-04-03T07:03:31;1.95;;;0.57;;
72132;SDS011;60008;50.826;6.896;2023-04-03T07:06:19;1.98;;;0.80;;
72132;SDS011;60008;50.826;6.896;2023-04-03T07:09:04;2.38;;;0.40;;
72132;SDS011;60008;50.826;6.896;2023-04-03T07:11:49;6.43;;;1.17;;
72132;SDS011;60008;50.826;6.896;2023-04-03T07:14:34;2.17;;;0.70;;
72132;SDS011;60008;50.826;6.896;2023-04-03T07:17:19;5.45;;;1.00;;
72132;SDS011;60008;50.826;6.896;2023-04-03T07:20:05;5.00;;;0.90;;
72132;SDS011;60008;50.826;6.896;2023-04-03T07:22:50;2.08;;;0.60;;
72132;SDS011;60008;50.826;6.896;2023-04-03T07:25:35;1.53;;;0.50;;
72132;SDS011;60008;50.826;6.896;2023-04-03T07:28:22;1.75;;;0.60;;
72132;SDS011;60008;50.826;6.896;2023-04-03T07:31:08;2.42;;;0.50;;
72132;SDS011;60008;50.826;6.896;2023-04-03T07:33:57;1.00;;;0.38;;
72132;SDS011;60008;50.826;6.896;2023-04-03T07:36:42;3.38;;;0.80;;
72132;SDS011;60008;50.826;6.896;2023-04-03T07:39:28;1.60;;;0.60;;
72132;SDS011;60008;50.826;6.896;2023-04-03T07:42:14;2.05;;;0.60;;
72132;SDS011;60008;50.826;6.896;2023-04-03T07:44:59;4.60;;;0.98;;
72132;SDS011;60008;50.826;6.896;2023-04-03T07:47:44;2.75;;;0.70;;
72132;SDS011;60008;50.826;6.896;2023-04-03T07:50:29;0.82;;;0.30;;
72132;SDS011;60008;50.826;6.896;2023-04-03T07:53:15;2.20;;;0.73;;
72132;SDS011;60008;50.826;6.896;2023-04-03T07:56:00;2.17;;;0.50;;
72132;SDS011;60008;50.826;6.896;2023-04-03T07:58:47;1.92;;;0.63;;
72132;SDS011;60008;50.826;6.896;2023-04-03T08:01:31;3.65;;;0.80;;
72132;SDS011;60008;50.826;6.896;2023-04-03T08:04:18;4.43;;;1.05;;
72132;SDS011;60008;50.826;6.896;2023-04-03T08:07:03;5.00;;;0.97;;
72132;SDS011;60008;50.826;6.896;2023-04-03T08:09:49;3.22;;;0.77;;
72132;SDS011;60008;50.826;6.896;2023-04-03T08:12:34;1.00;;;0.35;;
72132;SDS011;60008;50.826;6.896;2023-04-03T08:15:19;3.38;;;0.60;;
72132;SDS011;60008;50.826;6.896;2023-04-03T08:18:05;1.30;;;0.50;;
72132;SDS011;60008;50.826;6.896;2023-04-03T08:20:50;2.00;;;0.70;;
72132;SDS011;60008;50.826;6.896;2023-04-03T08:23:36;2.90;;;0.43;;
72132;SDS011;60008;50.826;6.896;2023-04-03T08:26:22;5.85;;;0.80;;
72132;SDS011;60008;50.826;6.896;2023-04-03T08:29:07;4.72;;;0.75;;
72132;SDS011;60008;50.826;6.896;2023-04-03T08:31:52;5.88;;;1.00;;
72132;SDS011;60008;50.826;6.896;2023-04-03T08:34:37;1.93;;;0.70;;
72132;SDS011;60008;50.826;6.896;2023-04-03T08:37:24;1.77;;;0.52;;
72132;SDS011;60008;50.826;6.896;2023-04-03T08:40:12;4.00;;;0.82;;
72132;SDS011;60008;50.826;6.896;2023-04-03T08:46:17;1.92;;;0.98;;
72132;SDS011;60008;50.826;6.896;2023-04-03T08:49:10;1.33;;;0.87;;
72132;SDS011;60008;50.826;6.896;2023-04-03T08:52:39;3.05;;;0.95;;
72132;SDS011;60008;50.826;6.896;2023-04-03T08:55:34;3.92;;;1.27;;
72132;SDS011;60008;50.826;6.896;2023-04-03T08:58:28;4.93;;;1.80;;
72132;SDS011;60008;50.826;6.896;2023-04-03T09:01:20;4.70;;;1.25;;
72132;SDS011;60008;50.826;6.896;2023-04-03T09:04:13;5.13;;;1.30;;
72132;SDS011;60008;50.826;6.896;2023-04-03T09:07:07;3.75;;;1.17;;
72132;SDS011;60008;50.826;6.896;2023-04-03T09:09:59;2.35;;;1.00;;
72132;SDS011;60008;50.826;6.896;2023-04-03T09:12:58;4.55;;;1.20;;
72132;SDS011;60008;50.826;6.896;2023-04-03T09:15:46;3.50;;;1.20;;
72132;SDS011;60008;50.826;6.896;2023-04-03T09:18:36;3.80;;;1.17;;
72132;SDS011;60008;50.826;6.896;2023-04-03T09:21:34;3.80;;;1.40;;
72132;SDS011;60008;50.826;6.896;2023-04-03T09:24:27;3.65;;;1.50;;
72132;SDS011;60008;50.826;6.896;2023-04-03T09:27:13;2.88;;;1.25;;
72132;SDS011;60008;50.826;6.896;2023-04-03T09:29:58;4.25;;;1.25;;
72132;SDS011;60008;50.826;6.896;2023-04-03T09:32:47;5.53;;;1.37;;
72132;SDS011;60008;50.826;6.896;2023-04-03T09:35:35;4.20;;;1.35;;
72132;SDS011;60008;50.826;6.896;2023-04-03T09:38:32;4.72;;;1.30;;
72132;SDS011;60008;50.826;6.896;2023-04-03T09:41:18;6.10;;;1.30;;
72132;SDS011;60008;50.826;6.896;2023-04-03T09:44:17;2.42;;;1.08;;
72132;SDS011;60008;50.826;6.896;2023-04-03T09:47:26;3.37;;;1.10;;
72132;SDS011;60008;50.826;6.896;2023-04-03T09:50:20;3.88;;;1.30;;
72132;SDS011;60008;50.826;6.896;2023-04-03T09:53:07;3.83;;;1.17;;
72132;SDS011;60008;50.826;6.896;2023-04-03T10:01:57;3.00;;;1.17;;
72132;SDS011;60008;50.826;6.896;2023-04-03T10:05:25;2.22;;;1.25;;
72132;SDS011;60008;50.826;6.896;2023-04-03T10:13:55;3.53;;;1.17;;
72132;SDS011;60008;50.826;6.896;2023-04-03T10:16:49;3.27;;;1.20;;
72132;SDS011;60008;50.826;6.896;2023-04-03T10:19:48;5.75;;;1.77;;
72132;SDS011;60008;50.826;6.896;2023-04-03T10:23:00;3.30;;;0.98;;
72132;SDS011;60008;50.826;6.896;2023-04-03T10:35:18;2.88;;;0.98;;
72132;SDS011;60008;50.826;6.896;2023-04-03T10:44:52;1.85;;;0.60;;
72132;SDS011;60008;50.826;6.896;2023-04-03T10:48:05;2.43;;;0.80;;
72132;SDS011;60008;50.826;6.896;2023-04-03T10:51:23;2.78;;;0.88;;
72132;SDS011;60008;50.826;6.896;2023-04-03T10:54:20;3.40;;;0.82;;
72132;SDS011;60008;50.826;6.896;2023-04-03T10:57:10;5.28;;;0.95;;
72132;SDS011;60008;50.826;6.896;2023-04-03T10:59:59;2.90;;;0.90;;
72132;SDS011;60008;50.826;6.896;2023-04-03T11:02:53;2.10;;;1.10;;
72132;SDS011;60008;50.826;6.896;2023-04-03T11:05:46;2.22;;;0.80;;
72132;SDS011;60008;50.826;6.896;2023-04-03T11:08:36;2.60;;;0.68;;
72132;SDS011;60008;50.826;6.896;2023-04-03T11:11:41;2.90;;;1.08;;
72132;SDS011;60008;50.826;6.896;2023-04-03T11:14:28;4.72;;;1.00;;
72132;SDS011;60008;50.826;6.896;2023-04-03T11:23:19;1.83;;;0.70;;
72132;SDS011;60008;50.826;6.896;2023-04-03T11:26:11;3.15;;;0.70;;
72132;SDS011;60008;50.826;6.896;2023-04-03T11:29:00;2.72;;;0.80;;
72132;SDS011;60008;50.826;6.896;2023-04-03T11:31:58;1.17;;;0.40;;
72132;SDS011;60008;50.826;6.896;2023-04-03T11:34:53;1.50;;;0.63;;
72132;SDS011;60008;50.826;6.896;2023-04-03T11:37:52;3.22;;;0.80;;
72132;SDS011;60008;50.826;6.896;2023-04-03T11:40:38;3.17;;;0.80;;
72132;SDS011;60008;50.826;6.896;2023-04-03T11:43:26;3.03;;;0.80;;
72132;SDS011;60008;50.826;6.896;2023-04-03T11:46:14;0.90;;;0.37;;
72132;SDS011;60008;50.826;6.896;2023-04-03T11:49:01;1.92;;;0.80;;
72132;SDS011;60008;50.826;6.896;2023-04-03T11:51:45;2.40;;;0.80;;
72132;SDS011;60008;50.826;6.896;2023-04-03T11:57:45;2.50;;;0.40;;
72132;SDS011;60008;50.826;6.896;2023-04-03T12:09:28;1.23;;;0.40;;
72132;SDS011;60008;50.826;6.896;2023-04-03T12:12:37;3.03;;;0.30;;
72132;SDS011;60008;50.826;6.896;2023-04-03T12:15:47;2.27;;;0.73;;
72132;SDS011;60008;50.826;6.896;2023-04-03T12:18:44;1.13;;;0.40;;
72132;SDS011;60008;50.826;6.896;2023-04-03T12:24:32;2.10;;;0.57;;
72132;SDS011;60008;50.826;6.896;2023-04-03T12:27:29;3.50;;;0.77;;
72132;SDS011;60008;50.826;6.896;2023-04-03T12:30:21;2.20;;;0.80;;
72132;SDS011;60008;50.826;6.896;2023-04-03T12:33:23;3.30;;;0.40;;
72132;SDS011;60008;50.826;6.896;2023-04-03T12:36:40;3.72;;;0.50;;
72132;SDS011;60008;50.826;6.896;2023-04-03T12:42:55;0.65;;;0.10;;
72132;SDS011;60008;50.826;6.896;2023-04-03T12:45:50;1.93;;;0.50;;
72132;SDS011;60008;50.826;6.896;2023-04-03T12:51:43;0.85;;;0.30;;
72132;SDS011;60008;50.826;6.896;2023-04-03T12:54:37;2.97;;;0.30;;
72132;SDS011;60008;50.826;6.896;2023-04-03T12:57:26;1.77;;;0.52;;
72132;SDS011;60008;50.826;6.896;2023-04-03T13:00:25;0.90;;;0.30;;
72132;SDS011;60008;50.826;6.896;2023-04-03T13:03:24;0.98;;;0.32;;
72132;SDS011;60008;50.826;6.896;2023-04-03T13:06:14;0.90;;;0.30;;
72132;SDS011;60008;50.826;6.896;2023-04-03T13:09:03;1.67;;;0.50;;
72132;SDS011;60008;50.826;6.896;2023-04-03T13:11:50;0.80;;;0.30;;
72132;SDS011;60008;50.826;6.896;2023-04-03T13:14:54;3.43;;;0.63;;
72132;SDS011;60008;50.826;6.896;2023-04-03T13:17:42;3.20;;;0.55;;
72132;SDS011;60008;50.826;6.896;2023-04-03T13:20:29;1.80;;;0.50;;
72132;SDS011;60008;50.826;6.896;2023-04-03T13:23:16;2.42;;;0.50;;
72132;SDS011;60008;50.826;6.896;2023-04-03T13:26:05;1.40;;;0.40;;
72132;SDS011;60008;50.826;6.896;2023-04-03T13:28:52;1.20;;;0.30;;
72132;SDS011;60008;50.826;6.896;2023-04-03T13:31:40;2.92;;;0.63;;
72132;SDS011;60008;50.826;6.896;2023-04-03T13:34:27;1.35;;;0.50;;
72132;SDS011;60008;50.826;6.896;2023-04-03T13:37:19;0.95;;;0.25;;
72132;SDS011;60008;50.826;6.896;2023-04-03T13:40:12;2.05;;;0.80;;
72132;SDS011;60008;50.826;6.896;2023-04-03T13:42:58;0.60;;;0.20;;
72132;SDS011;60008;50.826;6.896;2023-04-03T13:45:58;2.58;;;0.68;;
72132;SDS011;60008;50.826;6.896;2023-04-03T13:48:48;1.75;;;0.40;;
72132;SDS011;60008;50.826;6.896;2023-04-03T13:51:39;1.48;;;0.50;;
72132;SDS011;60008;50.826;6.896;2023-04-03T13:54:25;1.35;;;0.50;;
72132;SDS011;60008;50.826;6.896;2023-04-03T13:57:16;1.17;;;0.40;;
72132;SDS011;60008;50.826;6.896;2023-04-03T14:00:18;0.70;;;0.20;;
72132;SDS011;60008;50.826;6.896;2023-04-03T14:03:13;1.75;;;0.57;;
72132;SDS011;60008;50.826;6.896;2023-04-03T14:06:05;3.28;;;0.75;;
72132;SDS011;60008;50.826;6.896;2023-04-03T14:08:51;0.98;;;0.30;;
72132;SDS011;60008;50.826;6.896;2023-04-03T14:11:37;3.10;;;0.40;;
72132;SDS011;60008;50.826;6.896;2023-04-03T14:14:23;1.88;;;0.55;;
72132;SDS011;60008;50.826;6.896;2023-04-03T14:17:16;3.08;;;0.70;;
72132;SDS011;60008;50.826;6.896;2023-04-03T14:20:19;0.80;;;0.22;;
72132;SDS011;60008;50.826;6.896;2023-04-03T14:23:06;1.95;;;0.68;;
72132;SDS011;60008;50.826;6.896;2023-04-03T14:25:51;2.60;;;0.80;;
72132;SDS011;60008;50.826;6.896;2023-04-03T14:28:37;1.50;;;0.50;;
72132;SDS011;60008;50.826;6.896;2023-04-03T14:31:27;2.75;;;0.90;;
72132;SDS011;60008;50.826;6.896;2023-04-03T14:34:13;3.55;;;0.70;;
72132;SDS011;60008;50.826;6.896;2023-04-03T14:36:59;2.30;;;0.60;;
72132;SDS011;60008;50.826;6.896;2023-04-03T14:39:44;2.00;;;0.50;;
72132;SDS011;60008;50.826;6.896;2023-04-03T14:42:31;2.03;;;0.63;;
72132;SDS011;60008;50.826;6.896;2023-04-03T14:45:18;2.53;;;0.70;;
72132;SDS011;60008;50.826;6.896;2023-04-03T14:48:03;1.88;;;0.60;;
72132;SDS011;60008;50.826;6.896;2023-04-03T14:50:49;1.58;;;0.50;;
72132;SDS011;60008;50.826;6.896;2023-04-03T14:53:49;2.00;;;0.60;;
72132;SDS011;60008;50.826;6.896;2023-04-03T14:56:36;2.55;;;0.80;;
72132;SDS011;60008;50.826;6.896;2023-04-03T14:59:21;2.45;;;0.63;;
72132;SDS011;60008;50.826;6.896;2023-04-03T15:02:49;3.63;;;0.60;;
72132;SDS011;60008;50.826;6.896;2023-04-03T15:05:22;3.13;;;0.60;;
72132;SDS011;60008;50.826;6.896;2023-04-03T15:08:10;2.10;;;0.70;;
72132;SDS011;60008;50.826;6.896;2023-04-03T15:11:02;1.63;;;0.43;;
72132;SDS011;60008;50.826;6.896;2023-04-03T15:13:47;2.67;;;0.68;;
72132;SDS011;60008;50.826;6.896;2023-04-03T15:16:32;1.95;;;0.60;;
72132;SDS011;60008;50.826;6.896;2023-04-03T15:19:18;2.42;;;0.80;;
72132;SDS011;60008;50.826;6.896;2023-04-03T15:22:02;2.40;;;0.67;;
72132;SDS011;60008;50.826;6.896;2023-04-03T15:24:47;2.75;;;0.60;;
72132;SDS011;60008;50.826;6.896;2023-04-03T15:27:32;1.20;;;0.40;;
72132;SDS011;60008;50.826;6.896;2023-04-03T15:30:18;1.95;;;0.45;;
72132;SDS011;60008;50.826;6.896;2023-04-03T15:33:04;1.83;;;0.40;;
72132;SDS011;60008;50.826;6.896;2023-04-03T15:35:49;4.25;;;0.68;;
72132;SDS011;60008;50.826;6.896;2023-04-03T15:38:35;3.10;;;0.75;;
72132;SDS011;60008;50.826;6.896;2023-04-03T15:41:22;2.37;;;0.70;;
72132;SDS011;60008;50.826;6.896;2023-04-03T15:44:07;2.00;;;0.90;;
72132;SDS011;60008;50.826;6.896;2023-04-03T15:46:52;1.75;;;0.40;;
72132;SDS011;60008;50.826;6.896;2023-04-03T15:49:37;3.65;;;0.80;;
72132;SDS011;60008;50.826;6.896;2023-04-03T15:52:22;1.52;;;0.60;;
72132;SDS011;60008;50.826;6.896;2023-04-03T15:55:07;2.20;;;0.50;;
72132;SDS011;60008;50.826;6.896;2023-04-03T15:57:53;2.97;;;0.70;;
72132;SDS011;60008;50.826;6.896;2023-04-03T16:00:38;3.72;;;0.85;;
72132;SDS011;60008;50.826;6.896;2023-04-03T16:03:24;3.22;;;0.63;;
72132;SDS011;60008;50.826;6.896;2023-04-03T16:06:13;1.85;;;0.60;;
72132;SDS011;60008;50.826;6.896;2023-04-03T16:09:00;2.10;;;0.70;;
72132;SDS011;60008;50.826;6.896;2023-04-03T16:11:45;1.60;;;0.50;;
72132;SDS011;60008;50.826;6.896;2023-04-03T16:14:30;1.63;;;0.60;;
72132;SDS011;60008;50.826;6.896;2023-04-03T16:17:15;3.70;;;0.85;;
72132;SDS011;60008;50.826;6.896;2023-04-03T16:20:01;1.27;;;0.40;;
72132;SDS011;60008;50.826;6.896;2023-04-03T16:22:48;1.33;;;0.40;;
72132;SDS011;60008;50.826;6.896;2023-04-03T16:25:33;2.15;;;0.60;;
72132;SDS011;60008;50.826;6.896;2023-04-03T16:28:18;2.10;;;0.52;;
72132;SDS011;60008;50.826;6.896;2023-04-03T16:31:04;1.88;;;0.60;;
72132;SDS011;60008;50.826;6.896;2023-04-03T16:33:50;2.97;;;0.55;;
72132;SDS011;60008;50.826;6.896;2023-04-03T16:36:36;2.17;;;0.60;;
72132;SDS011;60008;50.826;6.896;2023-04-03T16:39:22;2.25;;;0.45;;
72132;SDS011;60008;50.826;6.896;2023-04-03T16:42:07;1.45;;;0.40;;
72132;SDS011;60008;50.826;6.896;2023-04-03T16:44:53;1.25;;;0.45;;
72132;SDS011;60008;50.826;6.896;2023-04-03T16:47:39;1.52;;;0.50;;
72132;SDS011;60008;50.826;6.896;2023-04-03T16:50:24;1.93;;;0.70;;
72132;SDS011;60008;50.826;6.896;2023-04-03T16:53:09;1.58;;;0.50;;
72132;SDS011;60008;50.826;6.896;2023-04-03T16:55:56;1.27;;;0.40;;
72132;SDS011;60008;50.826;6.896;2023-04-03T16:58:42;1.92;;;0.65;;
72132;SDS011;60008;50.826;6.896;2023-04-03T17:01:27;3.85;;;0.80;;
72132;SDS011;60008;50.826;6.896;2023-04-03T17:04:12;4.27;;;0.70;;
72132;SDS011;60008;50.826;6.896;2023-04-03T17:06:57;1.00;;;0.40;;
72132;SDS011;60008;50.826;6.896;2023-04-03T17:09:42;2.58;;;0.70;;
72132;SDS011;60008;50.826;6.896;2023-04-03T17:12:27;1.55;;;0.40;;
72132;SDS011;60008;50.826;6.896;2023-04-03T17:15:12;2.20;;;0.60;;
72132;SDS011;60008;50.826;6.896;2023-04-03T17:17:57;1.53;;;0.50;;
72132;SDS011;60008;50.826;6.896;2023-04-03T17:20:42;2.00;;;0.60;;
72132;SDS011;60008;50.826;6.896;2023-04-03T17:23:27;1.48;;;0.50;;
72132;SDS011;60008;50.826;6.896;2023-04-03T17:26:13;2.95;;;0.50;;
72132;SDS011;60008;50.826;6.896;2023-04-03T17:28:58;1.15;;;0.40;;
72132;SDS011;60008;50.826;6.896;2023-04-03T17:31:43;2.23;;;0.60;;
72132;SDS011;60008;50.826;6.896;2023-04-03T17:34:28;1.23;;;0.40;;
72132;SDS011;60008;50.826;6.896;2023-04-03T17:37:14;2.25;;;0.65;;
72132;SDS011;60008;50.826;6.896;2023-04-03T17:39:59;3.35;;;0.80;;
72132;SDS011;60008;50.826;6.896;2023-04-03T17:42:44;2.17;;;0.40;;
72132;SDS011;60008;50.826;6.896;2023-04-03T17:45:29;3.50;;;0.60;;
72132;SDS011;60008;50.826;6.896;2023-04-03T17:48:14;1.42;;;0.60;;
72132;SDS011;60008;50.826;6.896;2023-04-03T17:51:04;1.80;;;0.40;;
72132;SDS011;60008;50.826;6.896;2023-04-03T17:53:50;1.70;;;0.30;;
72132;SDS011;60008;50.826;6.896;2023-04-03T17:56:35;2.00;;;0.50;;
72132;SDS011;60008;50.826;6.896;2023-04-03T17:59:21;4.97;;;1.07;;